Time;durP1;ratioP1;P1;durP2;ratioP2;P2;SDS_P1;SDS_P2;PMS_P1;PMS_P2;Temp;Humidity;BMP_temperature;BMP_pressure;BME280_temperature;BME280_humidity;BME280_pressure;Samples;Min_cycle;Max_cycle;Signal;HPM_P1;HPM_P2
2024/03/19 00:01:59;;;;;;;;;70.00;54.00;;;;;13.97;72.30;101108.66;5053579;28;71257;-56
2024/03/19 00:04:24;;;;;;;;;73.50;54.50;;;;;13.96;72.34;101104.34;5047711;28;45439;-57
2024/03/19 00:06:51;;;;;;;;;71.75;52.50;;;;;13.95;72.22;101107.88;5057031;28;45433;-55
2024/03/19 00:09:17;;;;;;;;;58.25;43.50;;;;;13.94;72.45;101107.00;5056608;28;45539;-55
2024/03/19 00:11:43;;;;;;;;;65.75;49.50;;;;;13.92;72.63;101108.00;5058875;28;45687;-58
2024/03/19 00:14:08;;;;;;;;;65.75;49.50;;;;;13.91;72.54;101114.16;5048004;28;45509;-56
2024/03/19 00:16:33;;;;;;;;;63.00;48.25;;;;;13.90;72.74;101113.31;5052449;28;45424;-57
2024/03/19 00:19:00;;;;;;;;;65.50;47.50;;;;;13.89;72.84;101108.09;5057098;28;46082;-56
2024/03/19 00:21:26;;;;;;;;;64.50;48.75;;;;;13.86;72.75;101102.03;5073692;28;45354;-55
2024/03/19 00:23:52;;;;;;;;;59.25;46.75;;;;;13.85;73.12;101108.19;5052674;28;45328;-56
2024/03/19 00:26:17;;;;;;;;;62.50;47.25;;;;;13.85;73.26;101099.44;5036724;28;45439;-55
2024/03/19 00:28:43;;;;;;;;;55.50;45.75;;;;;13.83;73.48;101109.16;5058911;28;46307;-56
2024/03/19 00:31:10;;;;;;;;;57.50;45.00;;;;;13.82;73.32;101110.06;5058376;28;45490;-55
2024/03/19 00:33:35;;;;;;;;;61.00;44.50;;;;;13.81;73.25;101110.97;5057176;28;45405;-51
2024/03/19 00:36:09;;;;;;;;;60.50;45.00;;;;;13.78;73.51;101100.56;5056256;28;45234;-55
2024/03/19 00:38:35;;;;;;;;;54.00;42.75;;;;;13.77;73.80;101104.09;5044658;27;46431;-56
2024/03/19 00:41:00;;;;;;;;;62.25;45.25;;;;;13.74;73.53;101104.19;5048380;28;45364;-56
2024/03/19 00:43:26;;;;;;;;;60.25;45.75;;;;;13.74;73.71;101109.47;5054787;28;64745;-53
2024/03/19 00:45:51;;;;;;;;;61.25;44.50;;;;;13.72;73.68;101109.50;5057446;28;45205;-54
2024/03/19 00:48:17;;;;;;;;;57.75;43.50;;;;;13.71;74.25;101107.81;5056889;28;61391;-53
2024/03/19 00:50:42;;;;;;;;;57.67;45.00;;;;;13.70;74.39;101111.34;5053379;28;72196;-55
2024/03/19 00:53:07;;;;;;;;;60.50;45.50;;;;;13.70;74.50;101110.50;5046357;28;64735;-56
2024/03/19 00:55:33;;;;;;;;;59.00;45.00;;;;;13.68;74.22;101115.78;5040747;28;65938;-56
2024/03/19 00:57:59;;;;;;;;;52.75;41.50;;;;;13.65;74.74;101108.88;5044677;28;46251;-56
2024/03/19 01:00:24;;;;;;;;;57.00;44.50;;;;;13.65;74.53;101102.75;5055894;28;45332;-56
2024/03/19 01:02:49;;;;;;;;;54.00;42.75;;;;;13.64;74.48;101101.03;5052939;28;66099;-56
2024/03/19 01:05:15;;;;;;;;;61.75;44.00;;;;;13.63;74.79;101100.19;5046601;28;72501;-56
2024/03/19 01:07:41;;;;;;;;;56.50;44.00;;;;;13.62;75.09;101108.97;5061753;28;45724;-56
2024/03/19 01:10:08;;;;;;;;;59.50;44.25;;;;;13.61;75.23;101106.41;5061220;28;45410;-56
2024/03/19 01:12:34;;;;;;;;;59.25;43.50;;;;;13.60;74.93;101105.53;5060695;28;45475;-55
2024/03/19 01:15:00;;;;;;;;;59.50;44.00;;;;;13.59;75.47;101098.56;5054359;28;45426;-56
2024/03/19 01:17:25;;;;;;;;;57.00;43.50;;;;;13.58;75.17;101096.84;5052425;28;45495;-55
2024/03/19 01:19:50;;;;;;;;;59.50;42.75;;;;;13.57;75.39;101099.53;5058381;28;45260;-56
2024/03/19 01:22:17;;;;;;;;;55.25;42.50;;;;;13.58;75.38;101098.59;5060752;28;60347;-56
2024/03/19 01:24:42;;;;;;;;;56.00;43.75;;;;;13.56;75.50;101095.16;5061743;28;45426;-55
2024/03/19 01:27:07;;;;;;;;;14.75;8.75;;;;;13.54;75.25;101089.09;5051746;28;74151;-54
2024/03/19 01:29:33;;;;;;;;;58.50;45.00;;;;;13.54;75.76;101089.09;5039489;28;45406;-55
2024/03/19 01:31:58;;;;;;;;;59.00;43.25;;;;;13.53;75.67;101090.00;5066222;28;45459;-53
2024/03/19 01:34:24;;;;;;;;;58.75;43.25;;;;;13.46;75.79;101084.97;5061109;28;45423;-56
2024/03/19 01:36:49;;;;;;;;;53.75;41.00;;;;;13.47;76.13;101089.34;5051989;28;45502;-57
2024/03/19 01:39:15;;;;;;;;;52.00;41.00;;;;;13.48;76.05;101084.91;5052053;28;54042;-56
2024/03/19 01:41:40;;;;;;;;;57.25;43.50;;;;;13.48;75.96;101087.56;5049547;28;60373;-56
2024/03/19 01:44:07;;;;;;;;;53.25;40.00;;;;;13.46;76.05;101084.13;5061526;28;52734;-54
2024/03/19 01:46:33;;;;;;;;;52.25;42.50;;;;;13.46;76.43;101090.22;5059590;28;47203;-56
2024/03/19 01:48:59;;;;;;;;;55.75;42.75;;;;;13.43;76.07;101081.59;5056964;28;45427;-56
2024/03/19 01:51:25;;;;;;;;;54.50;41.00;;;;;13.41;76.44;101084.25;5059297;28;45449;-54
2024/03/19 01:53:51;;;;;;;;;57.50;43.25;;;;;13.39;76.79;101080.81;5057322;28;45293;-56
2024/03/19 01:56:17;;;;;;;;;50.25;38.75;;;;;13.38;76.85;101081.72;5052582;28;45289;-57
2024/03/19 01:58:46;;;;;;;;;54.00;41.50;;;;;13.38;76.54;101078.25;5060607;28;45366;-57
2024/03/19 02:01:13;;;;;;;;;54.00;42.25;;;;;13.37;76.86;101077.41;5058001;28;45455;-57
2024/03/19 02:03:38;;;;;;;;;55.25;43.25;;;;;13.36;76.67;101080.06;5059765;28;45469;-54
2024/03/19 02:06:04;;;;;;;;;52.25;41.75;;;;;13.36;77.12;101077.44;5060167;28;74004;-54
2024/03/19 02:08:30;;;;;;;;;53.50;41.25;;;;;13.34;76.75;101081.91;5056118;28;45375;-54
2024/03/19 02:10:55;;;;;;;;;52.50;39.00;;;;;13.32;77.13;101078.47;5053826;28;68136;-54
2024/03/19 02:13:21;;;;;;;;;47.75;40.00;;;;;13.30;77.31;101084.59;5060574;28;45442;-56
2024/03/19 02:15:48;;;;;;;;;50.50;40.25;;;;;13.30;76.92;101076.69;5052958;28;48686;-55
2024/03/19 02:18:13;;;;;;;;;50.25;38.00;;;;;13.29;77.43;101082.84;5047353;28;45801;-54
2024/03/19 02:20:39;;;;;;;;;46.00;38.00;;;;;13.24;77.50;101071.66;5053350;28;45447;-55
2024/03/19 02:23:04;;;;;;;;;51.00;40.00;;;;;13.25;77.62;101076.00;5055044;28;68875;-56
2024/03/19 02:25:29;;;;;;;;;49.00;39.50;;;;;13.24;77.23;101076.91;5056215;28;73462;-56
2024/03/19 02:27:55;;;;;;;;;49.25;39.50;;;;;13.22;77.63;101081.34;5057278;28;72153;-56
2024/03/19 02:30:20;;;;;;;;;50.00;39.50;;;;;13.20;77.56;101080.53;5050057;28;45824;-57
2024/03/19 02:32:46;;;;;;;;;52.00;40.50;;;;;13.17;77.76;101080.63;5042747;28;45530;-55
2024/03/19 02:35:11;;;;;;;;;51.75;37.25;;;;;13.16;77.40;101072.81;5049058;28;72102;-56
2024/03/19 02:37:36;;;;;;;;;51.25;39.00;;;;;13.16;77.54;101075.44;5050886;28;62560;-56
2024/03/19 02:40:05;;;;;;;;;46.50;35.25;;;;;13.13;77.89;101073.75;5035056;28;65999;-54
2024/03/19 02:42:31;;;;;;;;;49.00;39.75;;;;;13.10;77.81;101072.09;5051433;28;45568;-57
2024/03/19 02:44:56;;;;;;;;;51.50;37.25;;;;;13.07;78.22;101073.97;5060647;27;46364;-54
2024/03/19 02:47:22;;;;;;;;;45.00;34.75;;;;;13.06;78.12;101072.22;5054566;28;64175;-57
2024/03/19 02:49:47;;;;;;;;;44.75;33.25;;;;;13.05;78.15;101075.75;5059277;28;67912;-56
2024/03/19 02:52:12;;;;;;;;;44.75;36.75;;;;;13.03;78.21;101080.22;5054952;28;49096;-56
2024/03/19 02:54:37;;;;;;;;;47.50;34.00;;;;;13.01;78.51;101074.16;5039832;28;67269;-55
2024/03/19 02:57:03;;;;;;;;;45.75;32.75;;;;;12.99;78.45;101074.19;5041740;28;72872;-54
2024/03/19 02:59:28;;;;;;;;;40.50;31.25;;;;;12.98;78.93;101072.50;5060289;28;45395;-54
2024/03/19 03:01:56;;;;;;;;;38.75;30.75;;;;;12.98;78.79;101076.84;5057066;28;70222;-53
2024/03/19 03:04:21;;;;;;;;;38.75;30.50;;;;;12.96;78.75;101081.31;5060012;28;46102;-57
2024/03/19 03:06:46;;;;;;;;;43.50;31.25;;;;;12.95;79.02;101072.56;5057120;28;45481;-56
2024/03/19 03:09:12;;;;;;;;;35.00;27.50;;;;;12.93;79.09;101074.41;5049239;28;65668;-55
2024/03/19 03:11:37;;;;;;;;;34.00;28.75;;;;;12.91;79.25;101077.06;5044715;28;45509;-55
2024/03/19 03:14:03;;;;;;;;;37.00;27.50;;;;;12.89;78.91;101083.25;5059868;28;46095;-54
2024/03/19 03:16:28;;;;;;;;;33.75;27.50;;;;;12.88;79.30;101085.03;5053165;28;45446;-54
2024/03/19 03:18:54;;;;;;;;;22.75;18.00;;;;;12.87;79.28;101083.34;5051835;28;45378;-53
2024/03/19 03:21:19;;;;;;;;;24.75;19.00;;;;;12.86;79.58;101081.59;5056899;28;45278;-56
2024/03/19 03:23:45;;;;;;;;;24.75;19.75;;;;;12.84;79.24;101087.81;5052640;28;74019;-52
2024/03/19 03:26:10;;;;;;;;;24.50;15.00;;;;;12.80;78.86;101081.81;5058539;27;45349;-54
2024/03/19 03:28:35;;;;;;;;;15.75;11.75;;;;;12.76;79.45;101080.16;5049744;28;45410;-54
2024/03/19 03:31:02;;;;;;;;;22.75;15.00;;;;;12.76;79.77;101080.16;5046217;28;45545;-56
2024/03/19 03:33:28;;;;;;;;;23.50;20.50;;;;;12.75;79.83;101083.72;5058625;28;46335;-55
2024/03/19 03:35:53;;;;;;;;;17.00;14.75;;;;;12.76;79.22;101082.78;5044102;28;45376;-55
2024/03/19 03:38:18;;;;;;;;;17.25;15.75;;;;;12.77;79.65;101088.91;5050378;28;45289;-54
2024/03/19 03:40:45;;;;;;;;;18.50;17.00;;;;;12.79;79.44;101087.94;5047724;28;45332;-56
2024/03/19 03:43:11;;;;;;;;;21.75;14.75;;;;;12.81;79.55;101080.03;5040808;28;46217;-55
2024/03/19 03:45:37;;;;;;;;;21.50;15.00;;;;;12.85;79.53;101085.13;5052370;28;71628;-55
2024/03/19 03:48:03;;;;;;;;;18.00;16.25;;;;;12.92;79.28;101080.53;5059645;28;45538;-53
2024/03/19 03:50:29;;;;;;;;;18.25;14.50;;;;;12.95;79.48;101084.88;5056354;28;45573;-55
2024/03/19 03:52:54;;;;;;;;;23.50;18.50;;;;;12.99;79.03;101086.47;5051233;28;55374;-56
2024/03/19 03:55:19;;;;;;;;;18.25;14.00;;;;;13.04;79.45;101081.94;5058831;28;68067;-55
2024/03/19 03:57:45;;;;;;;;;17.50;13.75;;;;;13.07;79.01;101077.44;5049396;28;45216;-54
2024/03/19 04:00:12;;;;;;;;;18.50;16.25;;;;;13.10;78.83;101076.47;5042800;28;45361;-53
2024/03/19 04:02:41;;;;;;;;;19.50;16.00;;;;;13.11;78.90;101081.69;5053044;28;46838;-55
2024/03/19 04:05:07;;;;;;;;;18.50;18.00;;;;;13.15;78.92;101082.44;5058982;28;45518;-55
2024/03/19 04:07:36;;;;;;;;;21.50;17.50;;;;;13.17;79.17;101083.25;5059200;28;45284;-54
2024/03/19 04:10:03;;;;;;;;;17.25;15.25;;;;;13.18;79.00;101084.13;5042135;28;45467;-54
2024/03/19 04:12:30;;;;;;;;;21.50;16.75;;;;;13.18;78.67;101089.38;5047403;28;46912;-55
2024/03/19 04:14:55;;;;;;;;;21.25;15.25;;;;;13.15;78.45;101085.06;5058277;28;45854;-56
2024/03/19 04:17:21;;;;;;;;;18.50;17.00;;;;;13.12;78.81;101077.31;5058650;28;51935;-55
2024/03/19 04:19:46;;;;;;;;;16.50;15.25;;;;;13.10;78.76;101073.84;5042227;28;45476;-56
2024/03/19 04:22:11;;;;;;;;;20.75;16.50;;;;;13.05;78.49;101071.38;5057853;28;62936;-56
2024/03/19 04:24:36;;;;;;;;;22.00;19.25;;;;;13.04;78.84;101080.16;5051111;28;73333;-57
2024/03/19 04:27:02;;;;;;;;;23.75;18.00;;;;;13.01;78.79;101077.63;5058140;28;70503;-55
2024/03/19 04:29:27;;;;;;;;;19.50;17.00;;;;;12.98;79.26;101085.63;5049532;28;56797;-53
2024/03/19 04:31:53;;;;;;;;;21.25;18.75;;;;;12.97;79.05;101080.41;5042663;28;49821;-54
2024/03/19 04:34:18;;;;;;;;;20.25;16.50;;;;;12.95;79.12;101075.22;5061515;28;64791;-52
2024/03/19 04:36:43;;;;;;;;;19.50;16.00;;;;;12.92;79.14;101077.91;5062147;28;62824;-55
2024/03/19 04:39:14;;;;;;;;;23.50;17.50;;;;;12.89;79.78;101076.25;5045539;28;45304;-55
2024/03/19 04:41:40;;;;;;;;;19.00;15.50;;;;;12.86;79.53;101073.72;5053621;28;46890;-55
2024/03/19 04:44:06;;;;;;;;;13.25;12.25;;;;;12.80;79.73;101062.53;5058438;28;45440;-54
2024/03/19 04:46:31;;;;;;;;;24.25;18.25;;;;;12.83;79.74;101080.84;5043045;28;45474;-54
2024/03/19 04:48:57;;;;;;;;;18.75;16.50;;;;;12.81;79.64;101077.41;5061317;28;45330;-56
2024/03/19 04:51:22;;;;;;;;;20.25;16.50;;;;;12.80;79.83;101079.19;5059817;28;75271;-55
2024/03/19 04:53:47;;;;;;;;;24.25;20.25;;;;;12.80;79.65;101088.81;5059595;28;71582;-53
2024/03/19 04:56:12;;;;;;;;;24.25;20.50;;;;;12.76;79.53;101087.19;5050219;28;58713;-55
2024/03/19 04:58:38;;;;;;;;;24.25;18.50;;;;;12.73;80.00;101102.13;5050841;28;71887;-55
2024/03/19 05:01:03;;;;;;;;;22.00;19.25;;;;;12.67;79.81;101099.69;5049400;28;75743;-56
2024/03/19 05:03:29;;;;;;;;;17.75;16.00;;;;;12.64;80.09;101109.41;5061275;28;66998;-54
2024/03/19 05:05:54;;;;;;;;;24.50;19.50;;;;;12.61;79.95;101101.66;5060256;28;69352;-55
2024/03/19 05:08:19;;;;;;;;;20.00;17.50;;;;;12.58;80.51;101106.97;5052659;28;73106;-56
2024/03/19 05:10:45;;;;;;;;;27.00;22.75;;;;;12.55;80.52;101110.53;5041201;28;75746;-55
2024/03/19 05:13:10;;;;;;;;;28.50;22.25;;;;;12.53;80.34;101110.56;5054251;28;45461;-54
2024/03/19 05:15:35;;;;;;;;;21.25;16.00;;;;;12.51;80.52;101103.66;5052260;28;69140;-53
2024/03/19 05:18:00;;;;;;;;;21.25;17.75;;;;;12.48;80.75;101101.13;5057630;28;72148;-53
2024/03/19 05:20:26;;;;;;;;;18.50;17.75;;;;;12.45;80.43;101094.22;5054001;28;75467;-55
2024/03/19 05:22:51;;;;;;;;;22.50;14.75;;;;;12.44;80.78;101102.97;5058163;28;47580;-55
2024/03/19 05:25:16;;;;;;;;;18.50;15.50;;;;;12.44;80.64;101089.84;5055513;28;62757;-55
2024/03/19 05:27:42;;;;;;;;;22.00;16.00;;;;;12.41;80.45;101108.34;5058119;28;71911;-54
2024/03/19 05:30:10;;;;;;;;;19.75;14.25;;;;;12.38;80.47;101104.91;5050748;28;46066;-54
2024/03/19 05:32:35;;;;;;;;;22.25;16.00;;;;;12.33;80.32;101107.69;5052178;28;45841;-54
2024/03/19 05:35:01;;;;;;;;;20.25;15.00;;;;;12.29;80.48;101108.69;5061838;28;45410;-53
2024/03/19 05:37:27;;;;;;;;;18.50;16.50;;;;;12.27;80.86;101107.84;5054120;27;60806;-55
2024/03/19 05:39:52;;;;;;;;;13.75;13.00;;;;;12.24;80.79;101107.94;5037614;28;46948;-53
2024/03/19 05:42:17;;;;;;;;;22.75;17.00;;;;;12.19;80.76;101107.22;5043024;28;72231;-54
2024/03/19 05:44:43;;;;;;;;;18.50;16.25;;;;;12.18;81.23;101106.34;5054723;28;68485;-53
2024/03/19 05:47:08;;;;;;;;;22.75;15.25;;;;;12.16;81.18;101108.16;5060246;28;45432;-54
2024/03/19 05:49:34;;;;;;;;;18.25;14.25;;;;;12.14;81.28;101112.56;5055500;28;45469;-55
2024/03/19 05:51:59;;;;;;;;;18.50;15.00;;;;;12.11;81.19;101113.53;5046678;28;63575;-53
2024/03/19 05:54:24;;;;;;;;;15.00;13.00;;;;;12.10;81.69;101114.44;5052206;28;64166;-53
2024/03/19 05:56:50;;;;;;;;;16.50;15.25;;;;;12.09;81.19;101119.72;5045561;28;59094;-56
2024/03/19 05:59:15;;;;;;;;;17.75;14.00;;;;;12.08;81.11;101123.25;5053985;28;45270;-55
2024/03/19 06:01:40;;;;;;;;;20.25;15.75;;;;;12.06;81.53;101120.66;5059501;28;58728;-54
2024/03/19 06:04:05;;;;;;;;;16.00;14.25;;;;;12.07;81.73;101130.25;5059762;28;69316;-55
2024/03/19 06:06:31;;;;;;;;;22.00;14.75;;;;;12.11;81.66;101136.25;5056947;28;73272;-54
2024/03/19 06:08:56;;;;;;;;;17.25;13.25;;;;;12.15;81.96;101136.16;5050607;28;46884;-55
2024/03/19 06:11:22;;;;;;;;;17.00;15.50;;;;;12.23;82.00;101145.56;5057688;28;71743;-55
2024/03/19 06:13:47;;;;;;;;;21.50;14.00;;;;;12.27;81.73;101140.22;5058494;28;45800;-56
2024/03/19 06:16:12;;;;;;;;;19.50;15.50;;;;;12.33;81.61;101147.91;5045125;28;68557;-57
2024/03/19 06:18:38;;;;;;;;;16.50;13.25;;;;;12.38;81.34;101147.78;5045283;28;69589;-54
2024/03/19 06:21:04;;;;;;;;;16.50;12.00;;;;;12.42;81.40;101149.41;5049380;28;73303;-55
2024/03/19 06:23:29;;;;;;;;;19.50;15.50;;;;;12.46;81.18;101147.56;5057761;28;45445;-56
2024/03/19 06:25:54;;;;;;;;;15.00;13.50;;;;;12.53;81.05;101149.09;5052490;28;45355;-54
2024/03/19 06:28:20;;;;;;;;;15.00;13.00;;;;;12.57;80.42;101144.63;5058234;28;46047;-55
2024/03/19 06:30:46;;;;;;;;;20.00;14.25;;;;;12.57;80.88;101142.88;5053835;28;45602;-56
2024/03/19 06:33:12;;;;;;;;;17.50;12.00;;;;;12.60;80.68;101144.53;5060780;28;45331;-57
2024/03/19 06:35:37;;;;;;;;;17.75;13.00;;;;;12.61;80.71;101144.50;5059789;28;45276;-59
2024/03/19 06:38:02;;;;;;;;;18.00;13.25;;;;;12.64;80.37;101146.16;5056799;28;45546;-57
2024/03/19 06:40:31;;;;;;;;;15.75;12.50;;;;;12.66;80.62;101149.59;5050658;28;45279;-52
2024/03/19 06:42:57;;;;;;;;;22.75;16.75;;;;;12.68;80.39;101151.31;5051899;28;45450;-51
2024/03/19 06:45:23;;;;;;;;;21.50;16.00;;;;;12.71;80.13;101159.09;5040914;28;45201;-49
2024/03/19 06:47:48;;;;;;;;;17.75;14.25;;;;;12.75;79.90;101158.97;5054737;28;45423;-52
2024/03/19 06:50:14;;;;;;;;;15.50;14.25;;;;;12.77;80.13;101150.19;5059086;28;45764;-52
2024/03/19 06:52:43;;;;;;;;;11.50;10.00;;;;;12.80;79.96;101154.47;5043555;28;45436;-52
2024/03/19 06:55:09;;;;;;;;;11.75;10.00;;;;;12.83;79.90;101151.75;5047019;28;45375;-54
2024/03/19 06:57:34;;;;;;;;;17.00;14.50;;;;;12.87;79.78;101143.75;5049372;28;46090;-55
2024/03/19 07:00:00;;;;;;;;;21.00;19.50;;;;;12.92;79.79;101143.59;5049860;28;45292;-55
2024/03/19 07:02:26;;;;;;;;;40.00;33.25;;;;;13.00;79.54;101143.38;5039602;28;69215;-51
2024/03/19 07:04:52;;;;;;;;;21.25;15.50;;;;;13.03;79.21;101149.41;5049520;28;45205;-63
2024/03/19 07:07:17;;;;;;;;;17.50;13.25;;;;;13.08;79.75;101160.63;5057317;28;68309;-58
2024/03/19 07:09:45;;;;;;;;;17.50;14.25;;;;;13.10;79.33;101160.56;5045384;28;72126;-60
2024/03/19 07:12:10;;;;;;;;;13.00;11.00;;;;;13.11;78.62;101152.63;5057030;28;45310;-55
2024/03/19 07:14:36;;;;;;;;;26.00;20.25;;;;;13.13;78.86;101151.75;5059973;28;47141;-54
2024/03/19 07:17:01;;;;;;;;;20.50;14.25;;;;;13.18;78.99;101158.56;5059484;28;46213;-54
2024/03/19 07:19:27;;;;;;;;;18.50;15.00;;;;;13.23;78.59;101153.19;5059555;28;45383;-54
2024/03/19 07:21:52;;;;;;;;;19.00;16.25;;;;;13.30;78.43;101159.97;5054027;28;52952;-56
2024/03/19 07:24:17;;;;;;;;;17.00;13.50;;;;;13.35;78.83;101154.56;5053494;28;73018;-56
2024/03/19 07:26:43;;;;;;;;;12.75;12.00;;;;;13.40;78.07;101157.91;5059222;28;74458;-55
2024/03/19 07:29:09;;;;;;;;;15.25;14.00;;;;;13.46;77.99;101163.00;5060045;28;45455;-56
2024/03/19 07:31:36;;;;;;;;;16.75;11.75;;;;;13.51;77.32;101170.72;5059850;28;45991;-55
2024/03/19 07:34:03;;;;;;;;;12.75;12.50;;;;;13.52;77.07;101177.72;5056721;28;45565;-56
2024/03/19 07:36:28;;;;;;;;;16.25;11.75;;;;;13.55;77.00;101175.84;5050088;28;76633;-55
2024/03/19 07:38:54;;;;;;;;;20.50;13.75;;;;;13.56;76.50;101180.16;5051024;28;45249;-53
2024/03/19 07:41:19;;;;;;;;;9.50;8.50;;;;;13.59;76.48;101181.84;5058202;28;63687;-56
2024/03/19 07:43:44;;;;;;;;;15.50;10.00;;;;;13.60;76.65;101187.06;5041963;28;71183;-56
2024/03/19 07:46:10;;;;;;;;;17.00;12.50;;;;;13.58;76.13;101194.16;5052930;28;73441;-54
2024/03/19 07:48:35;;;;;;;;;18.00;14.75;;;;;13.58;76.39;101201.16;5050121;28;45427;-56
2024/03/19 07:51:01;;;;;;;;;29.25;26.25;;;;;13.54;76.39;101197.78;5059918;28;45367;-54
2024/03/19 07:53:27;;;;;;;;;16.00;14.50;;;;;13.54;75.87;101203.03;5059902;28;45500;-54
2024/03/19 07:55:52;;;;;;;;;17.00;15.00;;;;;13.51;76.41;101200.53;5059634;28;46118;-57
2024/03/19 07:58:17;;;;;;;;;20.75;15.50;;;;;13.51;76.26;101208.41;5053537;28;45370;-56
2024/03/19 08:00:43;;;;;;;;;22.25;17.00;;;;;13.49;76.47;101218.09;5042404;28;62028;-55
2024/03/19 08:03:08;;;;;;;;;20.50;17.25;;;;;13.54;76.76;101220.59;5038649;28;72138;-54
2024/03/19 08:05:34;;;;;;;;;20.00;13.50;;;;;13.65;76.94;101216.72;5052603;28;46279;-53
2024/03/19 08:08:01;;;;;;;;;28.25;23.75;;;;;13.75;76.98;101225.16;5045990;28;70225;-54
2024/03/19 08:10:26;;;;;;;;;20.25;18.00;;;;;13.85;76.56;101220.47;5042758;27;45337;-54
2024/03/19 08:12:52;;;;;;;;;11.00;11.00;;;;;13.95;75.95;101221.88;5039487;28;45202;-50
2024/03/19 08:15:17;;;;;;;;;13.75;10.25;;;;;13.99;75.02;101227.91;5039970;28;46078;-56
2024/03/19 08:17:43;;;;;;;;;9.25;9.25;;;;;14.07;74.56;101236.38;5041724;28;73124;-53
2024/03/19 08:20:12;;;;;;;;;16.75;14.50;;;;;14.17;73.75;101240.44;5043555;28;50191;-51
2024/03/19 08:22:40;;;;;;;;;14.00;10.00;;;;;14.30;73.42;101243.50;5050357;28;45473;-54
2024/03/19 08:25:13;;;;;;;;;12.75;10.00;;;;;14.41;73.25;101244.00;5042617;28;46166;-53
2024/03/19 08:27:39;;;;;;;;;14.00;8.75;;;;;14.51;72.38;101246.31;5039257;28;45405;-54
2024/03/19 08:30:06;;;;;;;;;9.50;8.00;;;;;14.55;72.53;101247.91;5039349;28;45352;-56
2024/03/19 08:32:31;;;;;;;;;11.00;9.50;;;;;14.57;71.99;101249.59;5038225;28;45475;-56
2024/03/19 08:34:57;;;;;;;;;9.75;9.50;;;;;14.63;71.61;101250.34;5059905;27;46009;-56
2024/03/19 08:37:23;;;;;;;;;8.00;7.00;;;;;14.66;71.08;101253.72;5058111;28;45243;-54
2024/03/19 08:39:48;;;;;;;;;9.75;7.75;;;;;14.70;71.18;101255.31;5059528;28;45292;-55
2024/03/19 08:42:13;;;;;;;;;7.75;6.00;;;;;14.72;70.51;101252.63;5050898;28;73262;-56
2024/03/19 08:44:39;;;;;;;;;6.50;6.50;;;;;14.81;70.15;101255.78;5046301;28;59006;-55
2024/03/19 08:47:05;;;;;;;;;8.00;6.25;;;;;14.91;69.65;101258.94;5037943;28;73316;-56
2024/03/19 08:49:30;;;;;;;;;8.50;6.75;;;;;14.96;69.50;101254.38;5045717;28;45379;-55
2024/03/19 08:51:56;;;;;;;;;8.75;8.75;;;;;14.96;69.34;101256.13;5046371;28;46548;-56
2024/03/19 08:54:21;;;;;;;;;8.00;6.75;;;;;14.93;69.09;101264.16;5058671;28;46282;-55
2024/03/19 08:56:47;;;;;;;;;11.75;7.25;;;;;14.88;69.31;101264.31;5059563;27;45368;-53
2024/03/19 08:59:13;;;;;;;;;13.50;12.25;;;;;14.91;69.04;101274.75;5058204;28;55564;-57
2024/03/19 09:01:38;;;;;;;;;11.50;9.00;;;;;14.94;68.99;101272.03;5058718;28;45420;-56
2024/03/19 09:04:06;;;;;;;;;11.00;8.00;;;;;14.96;68.71;101266.66;5058869;28;46344;-55
2024/03/19 09:06:31;;;;;;;;;10.50;6.50;;;;;14.97;68.98;101269.25;5044736;28;45233;-55
2024/03/19 09:08:57;;;;;;;;;10.50;6.25;;;;;14.95;68.67;101271.09;5048034;28;45453;-56
2024/03/19 09:11:22;;;;;;;;;7.25;6.75;;;;;14.96;68.57;101271.94;5057113;28;45363;-57
2024/03/19 09:13:48;;;;;;;;;10.25;6.75;;;;;14.97;68.42;101276.31;5057807;28;67275;-55
2024/03/19 09:16:13;;;;;;;;;8.75;5.50;;;;;15.00;68.01;101271.78;5057621;28;73297;-55
2024/03/19 09:18:42;;;;;;;;;13.00;8.25;;;;;15.05;67.93;101276.91;5050038;28;45421;-54
2024/03/19 09:21:10;;;;;;;;;11.50;8.75;;;;;15.16;68.03;101279.97;5041265;28;45646;-54
2024/03/19 09:23:37;;;;;;;;;10.50;8.75;;;;;15.30;67.79;101275.97;5060895;28;75814;-54
2024/03/19 09:26:02;;;;;;;;;10.75;7.50;;;;;15.40;67.67;101279.97;5047830;28;45330;-55
2024/03/19 09:28:31;;;;;;;;;9.75;9.75;;;;;15.39;66.89;101278.25;5042157;27;45310;-54
2024/03/19 09:30:56;;;;;;;;;8.25;7.50;;;;;15.34;67.13;101272.28;5055410;28;45533;-55
2024/03/19 09:33:22;;;;;;;;;10.00;8.00;;;;;15.33;67.05;101281.13;5061822;28;46334;-55
2024/03/19 09:35:48;;;;;;;;;12.25;10.50;;;;;15.31;66.96;101285.59;5047664;28;45329;-56
2024/03/19 09:38:15;;;;;;;;;13.25;8.25;;;;;15.25;66.88;101278.78;5040197;28;55287;-52
2024/03/19 09:40:43;;;;;;;;;13.50;9.25;;;;;15.21;66.92;101271.91;5046057;28;45178;-53
2024/03/19 09:43:08;;;;;;;;;10.50;9.25;;;;;15.15;66.90;101272.97;5058169;28;48781;-54
2024/03/19 09:45:34;;;;;;;;;10.25;7.50;;;;;15.16;66.63;101269.44;5045049;28;70679;-55
2024/03/19 09:48:00;;;;;;;;;12.00;8.50;;;;;15.19;66.69;101271.97;5054220;28;56553;-56
2024/03/19 09:50:26;;;;;;;;;12.75;8.50;;;;;15.24;66.48;101270.91;5046666;28;45386;-55
2024/03/19 09:52:58;;;;;;;;;7.00;5.25;;;;;15.27;66.23;101273.44;5056970;28;47139;-56
2024/03/19 09:55:26;;;;;;;;;4.75;2.00;;;;;15.28;66.24;101278.66;5041602;28;45349;-54
2024/03/19 09:57:54;;;;;;;;;8.00;6.00;;;;;15.29;65.92;101272.47;5040471;28;45580;-54
2024/03/19 10:00:23;;;;;;;;;9.25;8.00;;;;;15.23;66.01;101280.63;5056582;28;45484;-56
2024/03/19 10:02:49;;;;;;;;;12.00;8.50;;;;;15.16;65.73;101273.84;5052707;28;46406;-55
2024/03/19 10:05:15;;;;;;;;;15.75;7.50;;;;;15.15;66.05;101272.97;5057216;28;45383;-56
2024/03/19 10:07:40;;;;;;;;;6.00;5.75;;;;;15.18;65.61;101277.28;5046949;27;45277;-53
2024/03/19 10:10:06;;;;;;;;;7.75;5.50;;;;;15.21;65.10;101266.63;5044225;28;45583;-55
2024/03/19 10:12:32;;;;;;;;;9.00;7.50;;;;;15.25;65.47;101270.88;5041099;28;47045;-56
2024/03/19 10:14:57;;;;;;;;;8.00;6.00;;;;;15.30;64.90;101273.34;5040791;28;45554;-56
2024/03/19 10:17:24;;;;;;;;;5.75;5.00;;;;;15.34;65.02;101272.28;5054256;28;45296;-55
2024/03/19 10:19:49;;;;;;;;;5.75;2.75;;;;;15.45;65.00;101258.69;5039924;28;45530;-56
2024/03/19 10:22:14;;;;;;;;;6.00;6.00;;;;;15.55;64.48;101260.91;5057540;28;45236;-56
2024/03/19 10:24:45;;;;;;;;;6.75;5.00;;;;;15.67;64.04;101256.06;5045911;28;46548;-55
2024/03/19 10:27:16;;;;;;;;;4.50;3.00;;;;;15.78;63.95;101251.25;5041156;28;45337;-55
2024/03/19 10:29:44;;;;;;;;;4.00;4.00;;;;;15.87;63.48;101231.53;5041055;28;45477;-56
2024/03/19 10:32:09;;;;;;;;;4.00;4.00;;;;;15.96;63.33;101240.88;5038944;28;46314;-55
2024/03/19 10:34:35;;;;;;;;;5.00;3.50;;;;;16.05;62.82;101245.75;5053541;28;71988;-55
2024/03/19 10:37:01;;;;;;;;;5.00;4.00;;;;;16.10;62.59;101238.50;5041271;28;45365;-56
2024/03/19 10:39:26;;;;;;;;;4.25;4.25;;;;;16.15;62.28;101236.53;5071121;27;45340;-56
2024/03/19 10:41:52;;;;;;;;;8.25;5.00;;;;;16.22;61.82;101238.00;5051315;28;69712;-56
2024/03/19 10:44:19;;;;;;;;;6.50;2.50;;;;;16.33;62.00;101226.97;5040183;28;62766;-54
2024/03/19 10:46:47;;;;;;;;;6.50;3.75;;;;;16.37;61.89;101232.97;5041071;28;45432;-55
2024/03/19 10:49:15;;;;;;;;;4.50;4.00;;;;;16.47;61.54;101231.66;5048919;28;45287;-57
2024/03/19 10:51:44;;;;;;;;;4.50;4.00;;;;;16.55;61.59;101224.22;5040753;28;46912;-54
2024/03/19 10:54:12;;;;;;;;;5.50;4.50;;;;;16.64;61.40;101222.97;5039531;28;45248;-55
2024/03/19 10:56:38;;;;;;;;;4.50;4.00;;;;;16.73;60.97;101229.63;5060501;28;45467;-53
2024/03/19 10:59:04;;;;;;;;;6.75;5.25;;;;;16.81;61.12;101224.88;5058568;28;72088;-54
2024/03/19 11:01:29;;;;;;;;;5.75;4.50;;;;;16.83;60.58;101223.00;5059591;28;46058;-55
2024/03/19 11:03:54;;;;;;;;;6.50;6.50;;;;;16.86;61.05;101226.41;5059781;28;73649;-56
2024/03/19 11:06:22;;;;;;;;;7.50;4.50;;;;;16.95;60.30;101235.69;5065480;28;45376;-56